sensor_id;sensor_type;location;lat;lon;timestamp;P1;durP1;ratioP1;P2;durP2;ratioP2
29576;SDS011;16509;53.862;10.672;2022-09-09T00:04:12;57.67;;;19.48;;
29576;SDS011;16509;53.862;10.672;2022-09-09T00:09:42;72.90;;;21.50;;
29576;SDS011;16509;53.862;10.672;2022-09-09T00:12:12;49.90;;;19.95;;
29576;SDS011;16509;53.862;10.672;2022-09-09T00:14:50;62.08;;;20.80;;
29576;SDS011;16509;53.862;10.672;2022-09-09T00:19:53;67.15;;;21.35;;
29576;SDS011;16509;53.862;10.672;2022-09-09T00:22:24;61.33;;;20.98;;
29576;SDS011;16509;53.862;10.672;2022-09-09T00:24:54;69.78;;;22.20;;
29576;SDS011;16509;53.862;10.672;2022-09-09T00:27:23;64.95;;;21.27;;
29576;SDS011;16509;53.862;10.672;2022-09-09T00:29:57;73.82;;;19.60;;
29576;SDS011;16509;53.862;10.672;2022-09-09T00:32:25;69.28;;;21.85;;
29576;SDS011;16509;53.862;10.672;2022-09-09T00:34:56;75.50;;;22.83;;
29576;SDS011;16509;53.862;10.672;2022-09-09T00:37:24;64.40;;;20.77;;
29576;SDS011;16509;53.862;10.672;2022-09-09T00:39:50;67.55;;;21.58;;
29576;SDS011;16509;53.862;10.672;2022-09-09T00:42:26;71.78;;;23.13;;
29576;SDS011;16509;53.862;10.672;2022-09-09T00:44:58;70.50;;;22.20;;
29576;SDS011;16509;53.862;10.672;2022-09-09T00:50:02;73.13;;;24.92;;
29576;SDS011;16509;53.862;10.672;2022-09-09T00:52:47;67.13;;;22.67;;
29576;SDS011;16509;53.862;10.672;2022-09-09T00:55:39;67.68;;;22.70;;
29576;SDS011;16509;53.862;10.672;2022-09-09T00:58:07;60.30;;;21.73;;
29576;SDS011;16509;53.862;10.672;2022-09-09T01:00:41;63.25;;;22.90;;
29576;SDS011;16509;53.862;10.672;2022-09-09T01:08:34;61.60;;;23.60;;
29576;SDS011;16509;53.862;10.672;2022-09-09T01:11:00;53.40;;;20.80;;
29576;SDS011;16509;53.862;10.672;2022-09-09T01:13:31;53.60;;;21.25;;
29576;SDS011;16509;53.862;10.672;2022-09-09T01:15:58;52.80;;;20.75;;
29576;SDS011;16509;53.862;10.672;2022-09-09T01:18:44;55.78;;;20.70;;
29576;SDS011;16509;53.862;10.672;2022-09-09T01:24:03;52.20;;;20.30;;
29576;SDS011;16509;53.862;10.672;2022-09-09T01:29:00;53.85;;;20.77;;
29576;SDS011;16509;53.862;10.672;2022-09-09T01:31:27;47.95;;;19.88;;
29576;SDS011;16509;53.862;10.672;2022-09-09T01:33:54;48.67;;;19.80;;
29576;SDS011;16509;53.862;10.672;2022-09-09T01:38:52;43.28;;;20.23;;
29576;SDS011;16509;53.862;10.672;2022-09-09T01:41:18;45.90;;;20.13;;
29576;SDS011;16509;53.862;10.672;2022-09-09T01:43:44;48.50;;;20.00;;
29576;SDS011;16509;53.862;10.672;2022-09-09T01:46:10;42.13;;;18.77;;
29576;SDS011;16509;53.862;10.672;2022-09-09T01:48:37;42.28;;;18.45;;
29576;SDS011;16509;53.862;10.672;2022-09-09T01:51:04;38.40;;;17.58;;
29576;SDS011;16509;53.862;10.672;2022-09-09T01:53:30;44.95;;;19.02;;
29576;SDS011;16509;53.862;10.672;2022-09-09T01:55:58;37.78;;;17.48;;
29576;SDS011;16509;53.862;10.672;2022-09-09T02:00:57;45.05;;;19.15;;
29576;SDS011;16509;53.862;10.672;2022-09-09T02:03:28;39.00;;;16.85;;
29576;SDS011;16509;53.862;10.672;2022-09-09T02:08:21;41.35;;;17.92;;
29576;SDS011;16509;53.862;10.672;2022-09-09T02:11:03;48.30;;;20.60;;
29576;SDS011;16509;53.862;10.672;2022-09-09T02:13:31;51.95;;;19.83;;
29576;SDS011;16509;53.862;10.672;2022-09-09T02:16:40;46.15;;;19.48;;
29576;SDS011;16509;53.862;10.672;2022-09-09T02:19:31;42.05;;;19.25;;
29576;SDS011;16509;53.862;10.672;2022-09-09T02:21:37;44.80;;;19.20;;
29576;SDS011;16509;53.862;10.672;2022-09-09T02:24:05;43.83;;;19.10;;
29576;SDS011;16509;53.862;10.672;2022-09-09T02:26:37;41.72;;;18.45;;
29576;SDS011;16509;53.862;10.672;2022-09-09T02:29:06;43.33;;;19.00;;
29576;SDS011;16509;53.862;10.672;2022-09-09T02:31:33;43.70;;;18.90;;
29576;SDS011;16509;53.862;10.672;2022-09-09T02:34:00;44.22;;;19.05;;
29576;SDS011;16509;53.862;10.672;2022-09-09T02:36:28;53.75;;;19.58;;
29576;SDS011;16509;53.862;10.672;2022-09-09T02:38:55;49.72;;;19.02;;
29576;SDS011;16509;53.862;10.672;2022-09-09T02:41:32;54.40;;;20.60;;
29576;SDS011;16509;53.862;10.672;2022-09-09T02:43:59;44.58;;;18.92;;
29576;SDS011;16509;53.862;10.672;2022-09-09T02:46:35;48.70;;;18.67;;
29576;SDS011;16509;53.862;10.672;2022-09-09T02:56:47;44.80;;;19.17;;
29576;SDS011;16509;53.862;10.672;2022-09-09T02:59:15;48.00;;;19.85;;
29576;SDS011;16509;53.862;10.672;2022-09-09T03:01:42;45.75;;;19.50;;
29576;SDS011;16509;53.862;10.672;2022-09-09T03:04:08;51.33;;;18.63;;
29576;SDS011;16509;53.862;10.672;2022-09-09T03:06:34;47.97;;;18.83;;
29576;SDS011;16509;53.862;10.672;2022-09-09T03:09:00;49.85;;;18.50;;
29576;SDS011;16509;53.862;10.672;2022-09-09T03:11:27;48.03;;;19.02;;
29576;SDS011;16509;53.862;10.672;2022-09-09T03:13:53;48.47;;;18.23;;
29576;SDS011;16509;53.862;10.672;2022-09-09T03:16:21;45.33;;;18.48;;
29576;SDS011;16509;53.862;10.672;2022-09-09T03:18:47;51.22;;;19.45;;
29576;SDS011;16509;53.862;10.672;2022-09-09T03:21:13;47.63;;;19.13;;
29576;SDS011;16509;53.862;10.672;2022-09-09T03:23:39;44.65;;;18.35;;
29576;SDS011;16509;53.862;10.672;2022-09-09T03:26:05;45.60;;;18.35;;
29576;SDS011;16509;53.862;10.672;2022-09-09T03:28:31;42.35;;;18.00;;
29576;SDS011;16509;53.862;10.672;2022-09-09T03:31:01;45.30;;;18.00;;
29576;SDS011;16509;53.862;10.672;2022-09-09T03:33:27;44.60;;;18.20;;
29576;SDS011;16509;53.862;10.672;2022-09-09T03:35:54;41.55;;;18.08;;
29576;SDS011;16509;53.862;10.672;2022-09-09T03:38:22;44.78;;;16.58;;
29576;SDS011;16509;53.862;10.672;2022-09-09T03:40:55;41.80;;;16.58;;
29576;SDS011;16509;53.862;10.672;2022-09-09T03:43:22;43.10;;;18.77;;
29576;SDS011;16509;53.862;10.672;2022-09-09T03:45:48;44.00;;;18.30;;
29576;SDS011;16509;53.862;10.672;2022-09-09T03:48:14;45.97;;;19.73;;
29576;SDS011;16509;53.862;10.672;2022-09-09T03:50:47;41.75;;;18.15;;
29576;SDS011;16509;53.862;10.672;2022-09-09T03:53:14;40.25;;;18.27;;
29576;SDS011;16509;53.862;10.672;2022-09-09T03:55:43;43.78;;;18.10;;
29576;SDS011;16509;53.862;10.672;2022-09-09T03:58:10;38.92;;;16.88;;
29576;SDS011;16509;53.862;10.672;2022-09-09T04:00:36;36.22;;;17.60;;
29576;SDS011;16509;53.862;10.672;2022-09-09T04:03:05;36.95;;;17.55;;
29576;SDS011;16509;53.862;10.672;2022-09-09T04:05:31;35.17;;;15.52;;
29576;SDS011;16509;53.862;10.672;2022-09-09T04:07:58;39.67;;;17.23;;
29576;SDS011;16509;53.862;10.672;2022-09-09T04:10:24;35.72;;;16.20;;
29576;SDS011;16509;53.862;10.672;2022-09-09T04:12:51;36.20;;;16.77;;
29576;SDS011;16509;53.862;10.672;2022-09-09T04:15:17;46.13;;;17.90;;
29576;SDS011;16509;53.862;10.672;2022-09-09T04:17:43;41.70;;;17.38;;
29576;SDS011;16509;53.862;10.672;2022-09-09T04:20:09;39.55;;;17.50;;
29576;SDS011;16509;53.862;10.672;2022-09-09T04:22:37;35.63;;;16.50;;
29576;SDS011;16509;53.862;10.672;2022-09-09T04:25:04;38.25;;;17.95;;
29576;SDS011;16509;53.862;10.672;2022-09-09T04:27:30;42.72;;;18.67;;
29576;SDS011;16509;53.862;10.672;2022-09-09T04:29:56;45.88;;;19.10;;
29576;SDS011;16509;53.862;10.672;2022-09-09T04:32:22;41.75;;;18.13;;
29576;SDS011;16509;53.862;10.672;2022-09-09T04:34:51;45.22;;;18.70;;
29576;SDS011;16509;53.862;10.672;2022-09-09T04:37:17;42.00;;;17.42;;
29576;SDS011;16509;53.862;10.672;2022-09-09T04:39:43;44.15;;;18.30;;
29576;SDS011;16509;53.862;10.672;2022-09-09T04:42:10;45.35;;;18.98;;
29576;SDS011;16509;53.862;10.672;2022-09-09T04:44:37;48.83;;;19.40;;
29576;SDS011;16509;53.862;10.672;2022-09-09T04:47:04;46.13;;;18.77;;
29576;SDS011;16509;53.862;10.672;2022-09-09T04:49:30;45.95;;;18.73;;
29576;SDS011;16509;53.862;10.672;2022-09-09T04:51:56;47.85;;;18.73;;
29576;SDS011;16509;53.862;10.672;2022-09-09T04:54:22;44.45;;;19.23;;
29576;SDS011;16509;53.862;10.672;2022-09-09T04:56:49;46.45;;;18.80;;
29576;SDS011;16509;53.862;10.672;2022-09-09T04:59:15;40.78;;;17.30;;
29576;SDS011;16509;53.862;10.672;2022-09-09T05:01:41;49.60;;;18.73;;
29576;SDS011;16509;53.862;10.672;2022-09-09T05:04:07;43.15;;;18.55;;
29576;SDS011;16509;53.862;10.672;2022-09-09T05:06:34;44.70;;;19.13;;
29576;SDS011;16509;53.862;10.672;2022-09-09T05:09:01;41.72;;;17.88;;
29576;SDS011;16509;53.862;10.672;2022-09-09T05:11:30;45.25;;;20.10;;
29576;SDS011;16509;53.862;10.672;2022-09-09T05:13:57;37.03;;;17.23;;
29576;SDS011;16509;53.862;10.672;2022-09-09T05:16:23;43.88;;;18.70;;
29576;SDS011;16509;53.862;10.672;2022-09-09T05:18:49;43.03;;;17.88;;
29576;SDS011;16509;53.862;10.672;2022-09-09T05:21:19;42.20;;;18.35;;
29576;SDS011;16509;53.862;10.672;2022-09-09T05:23:46;37.72;;;17.02;;
29576;SDS011;16509;53.862;10.672;2022-09-09T05:26:13;38.92;;;17.98;;
29576;SDS011;16509;53.862;10.672;2022-09-09T05:28:39;38.97;;;17.80;;
29576;SDS011;16509;53.862;10.672;2022-09-09T05:31:06;39.38;;;18.88;;
29576;SDS011;16509;53.862;10.672;2022-09-09T05:33:33;38.05;;;17.98;;
29576;SDS011;16509;53.862;10.672;2022-09-09T05:36:03;39.42;;;17.75;;
29576;SDS011;16509;53.862;10.672;2022-09-09T05:38:30;40.08;;;17.60;;
29576;SDS011;16509;53.862;10.672;2022-09-09T05:40:57;40.75;;;18.35;;
29576;SDS011;16509;53.862;10.672;2022-09-09T05:43:24;39.35;;;17.35;;
29576;SDS011;16509;53.862;10.672;2022-09-09T05:46:03;39.40;;;17.00;;
29576;SDS011;16509;53.862;10.672;2022-09-09T05:48:30;42.70;;;17.88;;
29576;SDS011;16509;53.862;10.672;2022-09-09T05:50:57;42.25;;;17.55;;
29576;SDS011;16509;53.862;10.672;2022-09-09T05:53:23;39.15;;;17.48;;
29576;SDS011;16509;53.862;10.672;2022-09-09T05:55:50;37.20;;;15.90;;
29576;SDS011;16509;53.862;10.672;2022-09-09T05:58:16;33.65;;;15.82;;
29576;SDS011;16509;53.862;10.672;2022-09-09T06:00:42;40.97;;;16.67;;
29576;SDS011;16509;53.862;10.672;2022-09-09T06:03:10;37.30;;;17.08;;
29576;SDS011;16509;53.862;10.672;2022-09-09T06:05:36;35.67;;;15.02;;
29576;SDS011;16509;53.862;10.672;2022-09-09T06:08:02;32.83;;;16.17;;
29576;SDS011;16509;53.862;10.672;2022-09-09T06:10:28;32.17;;;15.82;;
29576;SDS011;16509;53.862;10.672;2022-09-09T06:12:54;32.10;;;15.25;;
29576;SDS011;16509;53.862;10.672;2022-09-09T06:15:20;35.15;;;15.15;;
29576;SDS011;16509;53.862;10.672;2022-09-09T06:17:46;28.85;;;15.32;;
29576;SDS011;16509;53.862;10.672;2022-09-09T06:20:14;33.08;;;15.43;;
29576;SDS011;16509;53.862;10.672;2022-09-09T06:22:40;27.95;;;14.00;;
29576;SDS011;16509;53.862;10.672;2022-09-09T06:25:06;33.50;;;15.02;;
29576;SDS011;16509;53.862;10.672;2022-09-09T06:27:33;30.80;;;14.60;;
29576;SDS011;16509;53.862;10.672;2022-09-09T06:29:59;30.50;;;14.30;;
29576;SDS011;16509;53.862;10.672;2022-09-09T06:32:25;31.67;;;14.98;;
29576;SDS011;16509;53.862;10.672;2022-09-09T06:34:51;27.98;;;13.50;;
29576;SDS011;16509;53.862;10.672;2022-09-09T06:37:17;24.75;;;12.52;;
29576;SDS011;16509;53.862;10.672;2022-09-09T06:39:43;32.22;;;14.48;;
29576;SDS011;16509;53.862;10.672;2022-09-09T06:42:09;28.63;;;13.25;;
29576;SDS011;16509;53.862;10.672;2022-09-09T06:44:35;24.13;;;13.43;;
29576;SDS011;16509;53.862;10.672;2022-09-09T06:47:01;25.73;;;12.77;;
29576;SDS011;16509;53.862;10.672;2022-09-09T06:49:28;28.90;;;13.55;;
29576;SDS011;16509;53.862;10.672;2022-09-09T06:51:54;28.85;;;12.65;;
29576;SDS011;16509;53.862;10.672;2022-09-09T06:54:20;24.98;;;12.10;;
29576;SDS011;16509;53.862;10.672;2022-09-09T06:56:47;25.65;;;12.75;;
29576;SDS011;16509;53.862;10.672;2022-09-09T06:59:14;27.65;;;12.25;;
29576;SDS011;16509;53.862;10.672;2022-09-09T07:01:40;20.35;;;10.75;;
29576;SDS011;16509;53.862;10.672;2022-09-09T07:04:07;23.88;;;11.88;;
29576;SDS011;16509;53.862;10.672;2022-09-09T07:06:34;19.73;;;10.52;;
29576;SDS011;16509;53.862;10.672;2022-09-09T07:09:02;20.23;;;10.63;;
29576;SDS011;16509;53.862;10.672;2022-09-09T07:11:30;20.98;;;10.00;;
29576;SDS011;16509;53.862;10.672;2022-09-09T07:13:59;20.02;;;10.70;;
29576;SDS011;16509;53.862;10.672;2022-09-09T07:16:25;21.45;;;10.35;;
29576;SDS011;16509;53.862;10.672;2022-09-09T07:18:53;22.33;;;10.13;;
29576;SDS011;16509;53.862;10.672;2022-09-09T07:21:22;20.73;;;10.57;;
29576;SDS011;16509;53.862;10.672;2022-09-09T07:23:49;18.45;;;10.38;;
29576;SDS011;16509;53.862;10.672;2022-09-09T07:26:16;20.92;;;10.32;;
29576;SDS011;16509;53.862;10.672;2022-09-09T07:28:44;19.35;;;10.40;;
29576;SDS011;16509;53.862;10.672;2022-09-09T07:31:14;18.15;;;9.25;;
29576;SDS011;16509;53.862;10.672;2022-09-09T07:33:41;17.45;;;9.07;;
29576;SDS011;16509;53.862;10.672;2022-09-09T07:38:41;13.18;;;7.70;;
29576;SDS011;16509;53.862;10.672;2022-09-09T07:41:08;13.10;;;7.55;;
29576;SDS011;16509;53.862;10.672;2022-09-09T07:43:37;20.05;;;9.15;;
29576;SDS011;16509;53.862;10.672;2022-09-09T07:46:03;14.40;;;7.80;;
29576;SDS011;16509;53.862;10.672;2022-09-09T07:48:30;15.88;;;7.13;;
29576;SDS011;16509;53.862;10.672;2022-09-09T07:51:04;12.90;;;7.22;;
29576;SDS011;16509;53.862;10.672;2022-09-09T07:53:30;12.50;;;7.72;;
29576;SDS011;16509;53.862;10.672;2022-09-09T07:56:02;14.55;;;6.75;;
29576;SDS011;16509;53.862;10.672;2022-09-09T07:58:28;11.15;;;6.30;;
29576;SDS011;16509;53.862;10.672;2022-09-09T08:00:54;10.50;;;5.82;;
29576;SDS011;16509;53.862;10.672;2022-09-09T08:03:20;8.20;;;5.97;;
29576;SDS011;16509;53.862;10.672;2022-09-09T08:05:47;9.40;;;5.72;;
29576;SDS011;16509;53.862;10.672;2022-09-09T08:08:12;9.80;;;6.15;;
29576;SDS011;16509;53.862;10.672;2022-09-09T08:10:38;8.15;;;5.20;;
29576;SDS011;16509;53.862;10.672;2022-09-09T08:13:04;10.73;;;5.63;;
29576;SDS011;16509;53.862;10.672;2022-09-09T08:15:31;8.88;;;5.55;;
29576;SDS011;16509;53.862;10.672;2022-09-09T08:17:57;9.13;;;5.45;;
29576;SDS011;16509;53.862;10.672;2022-09-09T08:20:23;9.00;;;5.50;;
29576;SDS011;16509;53.862;10.672;2022-09-09T08:22:49;10.77;;;5.75;;
29576;SDS011;16509;53.862;10.672;2022-09-09T08:25:15;9.38;;;5.72;;
29576;SDS011;16509;53.862;10.672;2022-09-09T08:27:41;10.50;;;5.82;;
29576;SDS011;16509;53.862;10.672;2022-09-09T08:30:07;16.15;;;5.85;;
29576;SDS011;16509;53.862;10.672;2022-09-09T08:32:33;6.93;;;5.10;;
29576;SDS011;16509;53.862;10.672;2022-09-09T08:35:00;9.00;;;5.68;;
29576;SDS011;16509;53.862;10.672;2022-09-09T08:37:26;9.85;;;5.47;;
29576;SDS011;16509;53.862;10.672;2022-09-09T08:39:52;10.50;;;5.57;;
29576;SDS011;16509;53.862;10.672;2022-09-09T08:42:24;12.15;;;6.13;;
29576;SDS011;16509;53.862;10.672;2022-09-09T08:50:26;7.07;;;5.18;;
29576;SDS011;16509;53.862;10.672;2022-09-09T08:53:01;8.43;;;5.72;;
29576;SDS011;16509;53.862;10.672;2022-09-09T08:57:57;10.20;;;6.22;;
29576;SDS011;16509;53.862;10.672;2022-09-09T09:00:28;8.60;;;6.43;;
29576;SDS011;16509;53.862;10.672;2022-09-09T09:03:06;15.05;;;5.90;;
29576;SDS011;16509;53.862;10.672;2022-09-09T09:10:54;10.43;;;6.25;;
29576;SDS011;16509;53.862;10.672;2022-09-09T09:15:53;8.52;;;5.63;;
29576;SDS011;16509;53.862;10.672;2022-09-09T09:18:19;11.48;;;6.15;;
29576;SDS011;16509;53.862;10.672;2022-09-09T09:21:05;7.43;;;5.38;;
29576;SDS011;16509;53.862;10.672;2022-09-09T09:23:40;10.68;;;5.82;;
29576;SDS011;16509;53.862;10.672;2022-09-09T09:26:09;10.57;;;5.93;;
29576;SDS011;16509;53.862;10.672;2022-09-09T09:28:38;9.50;;;5.70;;
29576;SDS011;16509;53.862;10.672;2022-09-09T09:31:06;6.85;;;4.95;;
29576;SDS011;16509;53.862;10.672;2022-09-09T09:36:14;8.67;;;4.93;;
29576;SDS011;16509;53.862;10.672;2022-09-09T09:38:54;8.13;;;4.10;;
29576;SDS011;16509;53.862;10.672;2022-09-09T09:43:56;6.97;;;4.30;;
29576;SDS011;16509;53.862;10.672;2022-09-09T09:46:23;7.43;;;3.95;;
29576;SDS011;16509;53.862;10.672;2022-09-09T09:49:00;7.68;;;3.97;;
29576;SDS011;16509;53.862;10.672;2022-09-09T09:51:26;10.65;;;4.30;;
29576;SDS011;16509;53.862;10.672;2022-09-09T09:53:53;11.60;;;4.75;;
29576;SDS011;16509;53.862;10.672;2022-09-09T09:56:27;8.93;;;3.88;;
29576;SDS011;16509;53.862;10.672;2022-09-09T09:58:54;6.45;;;4.30;;
29576;SDS011;16509;53.862;10.672;2022-09-09T10:01:22;6.43;;;4.43;;
29576;SDS011;16509;53.862;10.672;2022-09-09T10:03:53;7.20;;;3.95;;
29576;SDS011;16509;53.862;10.672;2022-09-09T10:06:35;5.43;;;3.95;;
29576;SDS011;16509;53.862;10.672;2022-09-09T10:09:03;7.93;;;4.00;;
29576;SDS011;16509;53.862;10.672;2022-09-09T10:11:47;4.40;;;3.55;;
29576;SDS011;16509;53.862;10.672;2022-09-09T10:14:19;5.97;;;2.83;;
29576;SDS011;16509;53.862;10.672;2022-09-09T10:19:32;6.57;;;3.10;;
29576;SDS011;16509;53.862;10.672;2022-09-09T10:24:36;3.72;;;2.40;;
29576;SDS011;16509;53.862;10.672;2022-09-09T10:27:11;13.80;;;3.45;;
29576;SDS011;16509;53.862;10.672;2022-09-09T10:32:16;4.00;;;2.38;;
29576;SDS011;16509;53.862;10.672;2022-09-09T10:37:36;10.95;;;2.88;;
29576;SDS011;16509;53.862;10.672;2022-09-09T10:42:51;5.30;;;3.05;;
29576;SDS011;16509;53.862;10.672;2022-09-09T10:45:18;6.47;;;2.60;;
29576;SDS011;16509;53.862;10.672;2022-09-09T10:50:50;5.07;;;2.92;;
29576;SDS011;16509;53.862;10.672;2022-09-09T10:53:23;5.13;;;2.10;;
29576;SDS011;16509;53.862;10.672;2022-09-09T10:55:55;3.63;;;2.67;;
29576;SDS011;16509;53.862;10.672;2022-09-09T10:58:28;3.97;;;2.25;;
29576;SDS011;16509;53.862;10.672;2022-09-09T11:00:59;4.63;;;2.50;;
29576;SDS011;16509;53.862;10.672;2022-09-09T11:03:28;3.65;;;2.05;;
29576;SDS011;16509;53.862;10.672;2022-09-09T11:06:00;3.35;;;1.70;;
29576;SDS011;16509;53.862;10.672;2022-09-09T11:08:28;5.18;;;1.50;;
29576;SDS011;16509;53.862;10.672;2022-09-09T11:18:36;3.03;;;1.25;;
29576;SDS011;16509;53.862;10.672;2022-09-09T11:21:12;3.50;;;1.17;;
29576;SDS011;16509;53.862;10.672;2022-09-09T11:23:43;2.72;;;1.38;;
29576;SDS011;16509;53.862;10.672;2022-09-09T11:26:12;1.75;;;1.00;;
29576;SDS011;16509;53.862;10.672;2022-09-09T11:31:44;1.30;;;0.90;;
29576;SDS011;16509;53.862;10.672;2022-09-09T11:36:54;2.53;;;1.00;;
29576;SDS011;16509;53.862;10.672;2022-09-09T11:44:37;1.50;;;0.90;;
29576;SDS011;16509;53.862;10.672;2022-09-09T11:47:04;1.73;;;1.10;;
29576;SDS011;16509;53.862;10.672;2022-09-09T11:49:41;6.50;;;1.10;;
29576;SDS011;16509;53.862;10.672;2022-09-09T11:52:11;3.67;;;1.40;;
29576;SDS011;16509;53.862;10.672;2022-09-09T11:54:46;2.67;;;1.17;;
29576;SDS011;16509;53.862;10.672;2022-09-09T11:57:32;1.67;;;1.08;;
29576;SDS011;16509;53.862;10.672;2022-09-09T12:00:00;3.05;;;1.10;;
29576;SDS011;16509;53.862;10.672;2022-09-09T12:02:29;3.80;;;1.15;;
29576;SDS011;16509;53.862;10.672;2022-09-09T12:05:08;4.28;;;1.10;;
29576;SDS011;16509;53.862;10.672;2022-09-09T12:07:35;3.97;;;1.17;;
29576;SDS011;16509;53.862;10.672;2022-09-09T12:10:05;1.55;;;0.73;;
29576;SDS011;16509;53.862;10.672;2022-09-09T12:12:43;3.35;;;0.93;;
29576;SDS011;16509;53.862;10.672;2022-09-09T12:17:42;3.85;;;1.08;;
29576;SDS011;16509;53.862;10.672;2022-09-09T12:33:37;6.00;;;0.70;;
29576;SDS011;16509;53.862;10.672;2022-09-09T12:36:08;2.97;;;1.15;;
29576;SDS011;16509;53.862;10.672;2022-09-09T12:38:38;1.75;;;0.75;;
29576;SDS011;16509;53.862;10.672;2022-09-09T12:41:05;3.55;;;1.00;;
29576;SDS011;16509;53.862;10.672;2022-09-09T12:43:31;1.42;;;0.77;;
29576;SDS011;16509;53.862;10.672;2022-09-09T12:45:59;0.73;;;0.50;;
29576;SDS011;16509;53.862;10.672;2022-09-09T12:48:44;5.18;;;1.17;;
29576;SDS011;16509;53.862;10.672;2022-09-09T12:51:26;0.52;;;0.50;;
29576;SDS011;16509;53.862;10.672;2022-09-09T12:53:54;3.53;;;0.88;;
29576;SDS011;16509;53.862;10.672;2022-09-09T12:56:20;8.15;;;1.08;;
29576;SDS011;16509;53.862;10.672;2022-09-09T12:58:48;1.42;;;0.75;;
29576;SDS011;16509;53.862;10.672;2022-09-09T13:01:23;3.45;;;0.73;;
29576;SDS011;16509;53.862;10.672;2022-09-09T13:03:49;2.25;;;0.95;;
29576;SDS011;16509;53.862;10.672;2022-09-09T13:06:23;2.63;;;0.80;;
29576;SDS011;16509;53.862;10.672;2022-09-09T13:08:50;2.13;;;0.90;;
29576;SDS011;16509;53.862;10.672;2022-09-09T13:11:17;2.05;;;0.57;;
29576;SDS011;16509;53.862;10.672;2022-09-09T13:13:50;6.80;;;0.77;;
29576;SDS011;16509;53.862;10.672;2022-09-09T13:16:22;4.97;;;0.80;;
29576;SDS011;16509;53.862;10.672;2022-09-09T13:18:48;1.60;;;0.82;;
29576;SDS011;16509;53.862;10.672;2022-09-09T13:21:15;0.70;;;0.70;;
29576;SDS011;16509;53.862;10.672;2022-09-09T13:23:42;4.35;;;0.90;;
29576;SDS011;16509;53.862;10.672;2022-09-09T13:28:48;2.60;;;1.05;;
29576;SDS011;16509;53.862;10.672;2022-09-09T13:31:22;1.40;;;0.80;;
29576;SDS011;16509;53.862;10.672;2022-09-09T13:33:49;0.73;;;0.70;;
29576;SDS011;16509;53.862;10.672;2022-09-09T13:36:15;2.65;;;0.80;;
29576;SDS011;16509;53.862;10.672;2022-09-09T13:39:03;1.55;;;0.90;;
29576;SDS011;16509;53.862;10.672;2022-09-09T13:41:32;1.13;;;0.60;;
29576;SDS011;16509;53.862;10.672;2022-09-09T13:43:58;1.20;;;0.70;;
29576;SDS011;16509;53.862;10.672;2022-09-09T13:46:40;0.60;;;0.60;;
29576;SDS011;16509;53.862;10.672;2022-09-09T13:51:45;3.17;;;0.75;;
29576;SDS011;16509;53.862;10.672;2022-09-09T13:54:12;3.22;;;0.90;;
29576;SDS011;16509;53.862;10.672;2022-09-09T13:56:39;4.38;;;1.10;;
29576;SDS011;16509;53.862;10.672;2022-09-09T13:59:08;2.60;;;0.90;;
29576;SDS011;16509;53.862;10.672;2022-09-09T14:01:34;0.90;;;0.60;;
29576;SDS011;16509;53.862;10.672;2022-09-09T14:04:02;2.42;;;1.13;;
29576;SDS011;16509;53.862;10.672;2022-09-09T14:06:28;3.17;;;0.80;;
29576;SDS011;16509;53.862;10.672;2022-09-09T14:08:54;2.75;;;0.80;;
29576;SDS011;16509;53.862;10.672;2022-09-09T14:11:21;1.27;;;0.80;;
29576;SDS011;16509;53.862;10.672;2022-09-09T14:13:47;2.03;;;0.88;;
29576;SDS011;16509;53.862;10.672;2022-09-09T14:16:15;2.13;;;0.90;;
29576;SDS011;16509;53.862;10.672;2022-09-09T14:18:41;3.33;;;0.90;;
29576;SDS011;16509;53.862;10.672;2022-09-09T14:21:08;1.27;;;0.85;;
29576;SDS011;16509;53.862;10.672;2022-09-09T14:23:34;2.10;;;1.20;;
29576;SDS011;16509;53.862;10.672;2022-09-09T14:26:00;2.08;;;1.05;;
29576;SDS011;16509;53.862;10.672;2022-09-09T14:28:26;2.55;;;1.40;;
29576;SDS011;16509;53.862;10.672;2022-09-09T14:30:58;2.75;;;1.02;;
29576;SDS011;16509;53.862;10.672;2022-09-09T14:33:24;2.17;;;1.10;;
29576;SDS011;16509;53.862;10.672;2022-09-09T14:35:55;4.72;;;1.30;;
29576;SDS011;16509;53.862;10.672;2022-09-09T14:38:20;2.58;;;1.00;;
29576;SDS011;16509;53.862;10.672;2022-09-09T14:40:46;3.40;;;1.30;;
29576;SDS011;16509;53.862;10.672;2022-09-09T14:43:12;5.05;;;1.85;;
29576;SDS011;16509;53.862;10.672;2022-09-09T14:45:39;4.30;;;1.50;;
29576;SDS011;16509;53.862;10.672;2022-09-09T14:48:05;4.43;;;1.80;;
29576;SDS011;16509;53.862;10.672;2022-09-09T14:50:31;3.08;;;1.67;;
29576;SDS011;16509;53.862;10.672;2022-09-09T14:52:57;4.53;;;1.55;;
29576;SDS011;16509;53.862;10.672;2022-09-09T14:55:22;3.47;;;1.52;;
29576;SDS011;16509;53.862;10.672;2022-09-09T14:57:48;4.82;;;1.70;;
29576;SDS011;16509;53.862;10.672;2022-09-09T15:00:14;4.25;;;1.83;;
29576;SDS011;16509;53.862;10.672;2022-09-09T15:02:41;2.55;;;1.30;;
29576;SDS011;16509;53.862;10.672;2022-09-09T15:05:07;4.75;;;1.52;;
29576;SDS011;16509;53.862;10.672;2022-09-09T15:07:33;1.35;;;1.17;;
29576;SDS011;16509;53.862;10.672;2022-09-09T15:10:00;3.15;;;1.60;;
29576;SDS011;16509;53.862;10.672;2022-09-09T15:12:26;3.28;;;1.90;;
29576;SDS011;16509;53.862;10.672;2022-09-09T15:14:53;3.22;;;1.30;;
29576;SDS011;16509;53.862;10.672;2022-09-09T15:17:19;1.33;;;1.23;;
29576;SDS011;16509;53.862;10.672;2022-09-09T15:19:45;6.60;;;1.20;;
29576;SDS011;16509;53.862;10.672;2022-09-09T15:22:11;1.52;;;1.20;;
29576;SDS011;16509;53.862;10.672;2022-09-09T15:24:38;2.85;;;1.48;;
29576;SDS011;16509;53.862;10.672;2022-09-09T15:27:04;1.38;;;1.15;;
29576;SDS011;16509;53.862;10.672;2022-09-09T15:29:30;4.28;;;1.50;;
29576;SDS011;16509;53.862;10.672;2022-09-09T15:31:56;1.55;;;1.10;;
29576;SDS011;16509;53.862;10.672;2022-09-09T15:34:22;4.07;;;1.80;;
29576;SDS011;16509;53.862;10.672;2022-09-09T15:36:48;2.92;;;1.30;;
29576;SDS011;16509;53.862;10.672;2022-09-09T15:39:15;3.22;;;1.10;;
29576;SDS011;16509;53.862;10.672;2022-09-09T15:41:41;1.50;;;1.05;;
29576;SDS011;16509;53.862;10.672;2022-09-09T15:44:08;5.60;;;1.08;;
29576;SDS011;16509;53.862;10.672;2022-09-09T15:46:38;0.93;;;0.82;;
29576;SDS011;16509;53.862;10.672;2022-09-09T15:49:06;1.00;;;0.80;;
29576;SDS011;16509;53.862;10.672;2022-09-09T15:51:33;0.60;;;0.60;;
29576;SDS011;16509;53.862;10.672;2022-09-09T15:53:59;6.22;;;0.88;;
29576;SDS011;16509;53.862;10.672;2022-09-09T15:56:26;1.13;;;0.70;;
29576;SDS011;16509;53.862;10.672;2022-09-09T15:58:53;1.58;;;1.08;;
29576;SDS011;16509;53.862;10.672;2022-09-09T16:01:20;1.88;;;0.70;;
29576;SDS011;16509;53.862;10.672;2022-09-09T16:03:46;3.95;;;1.02;;
29576;SDS011;16509;53.862;10.672;2022-09-09T16:06:15;1.00;;;0.82;;
29576;SDS011;16509;53.862;10.672;2022-09-09T16:08:42;1.58;;;0.77;;
29576;SDS011;16509;53.862;10.672;2022-09-09T16:11:10;1.35;;;0.82;;
29576;SDS011;16509;53.862;10.672;2022-09-09T16:13:37;4.43;;;1.27;;
29576;SDS011;16509;53.862;10.672;2022-09-09T16:16:04;1.67;;;0.88;;
29576;SDS011;16509;53.862;10.672;2022-09-09T16:18:34;4.22;;;1.00;;
29576;SDS011;16509;53.862;10.672;2022-09-09T16:21:01;0.95;;;0.90;;
29576;SDS011;16509;53.862;10.672;2022-09-09T16:23:27;3.60;;;1.05;;
29576;SDS011;16509;53.862;10.672;2022-09-09T16:25:53;1.98;;;1.00;;